createdAt,value
2019-02-25T00:02:04.626Z,8.38
2019-02-25T00:04:36.212Z,8.48
2019-02-25T00:07:07.266Z,8.75
2019-02-25T00:09:38.828Z,8.55
2019-02-25T00:12:10.166Z,8.50
2019-02-25T00:14:41.188Z,8.93
2019-02-25T00:17:13.041Z,8.55
2019-02-25T00:19:44.626Z,9.00
2019-02-25T00:22:16.327Z,8.85
2019-02-25T00:24:47.583Z,8.65
2019-02-25T00:27:18.847Z,8.83
2019-02-25T00:29:50.751Z,9.20
2019-02-25T00:32:21.737Z,9.55
2019-02-25T00:34:52.899Z,9.68
2019-02-25T00:37:24.643Z,9.75
2019-02-25T00:39:56.514Z,9.00
2019-02-25T00:42:28.040Z,8.90
2019-02-25T00:44:59.609Z,9.43
2019-02-25T00:47:31.202Z,9.18
2019-02-25T00:50:02.687Z,9.75
2019-02-25T00:52:34.543Z,9.80
2019-02-25T00:55:06.427Z,9.95
2019-02-25T00:57:38.072Z,9.60
2019-02-25T01:00:13.346Z,10.30
2019-02-25T01:02:44.341Z,9.98
2019-02-25T01:05:16.440Z,9.10
2019-02-25T01:07:47.748Z,10.00
2019-02-25T01:10:19.291Z,9.20
2019-02-25T01:12:50.389Z,8.93
2019-02-25T01:15:22.417Z,8.75
2019-02-25T01:17:53.676Z,9.18
2019-02-25T01:20:24.626Z,9.20
2019-02-25T01:22:55.842Z,9.58
2019-02-25T01:25:27.240Z,8.70
2019-02-25T01:27:58.988Z,9.55
2019-02-25T01:30:30.418Z,8.45
2019-02-25T01:33:01.706Z,8.53
2019-02-25T01:35:32.659Z,8.30
2019-02-25T01:38:04.513Z,8.80
2019-02-25T01:40:36.115Z,8.63
2019-02-25T01:43:07.498Z,9.10
2019-02-25T01:45:38.899Z,8.40
2019-02-25T01:48:09.912Z,8.50
2019-02-25T01:50:41.450Z,7.42
2019-02-25T01:53:13.064Z,7.30
2019-02-25T01:55:44.289Z,8.70
2019-02-25T01:58:15.877Z,7.95
2019-02-25T02:00:47.412Z,7.80
2019-02-25T02:03:18.763Z,7.50
2019-02-25T02:05:50.572Z,7.45
2019-02-25T02:08:22.081Z,7.30
2019-02-25T02:10:53.671Z,8.48
2019-02-25T02:13:25.208Z,7.35
2019-02-25T02:15:56.780Z,7.78
2019-02-25T02:18:28.315Z,8.03
2019-02-25T02:20:59.884Z,7.15
2019-02-25T02:23:30.913Z,8.78
2019-02-25T02:26:02.457Z,7.30
2019-02-25T02:28:34.277Z,8.70
2019-02-25T02:31:06.144Z,7.37
2019-02-25T02:33:37.698Z,7.55
2019-02-25T02:36:11.600Z,8.05
2019-02-25T02:38:42.167Z,7.33
2019-02-25T02:41:13.835Z,8.28
2019-02-25T02:43:45.867Z,7.60
2019-02-25T02:47:12.834Z,7.53
2019-02-25T02:49:43.914Z,7.97
2019-02-25T02:52:14.888Z,7.80
2019-02-25T02:54:46.507Z,8.20
2019-02-25T02:57:17.951Z,8.18
2019-02-25T02:59:49.246Z,8.10
2019-02-25T03:02:21.116Z,7.95
2019-02-25T03:04:52.400Z,8.20
2019-02-25T03:07:24.047Z,8.05
2019-02-25T03:09:56.001Z,7.75
2019-02-25T03:12:27.215Z,8.33
2019-02-25T03:14:58.438Z,7.97
2019-02-25T03:17:29.460Z,7.17
2019-02-25T03:20:01.287Z,7.50
2019-02-25T03:22:32.283Z,7.60
2019-02-25T03:25:03.068Z,7.95
2019-02-25T03:27:34.657Z,7.95
2019-02-25T03:30:07.995Z,8.13
2019-02-25T03:32:39.715Z,8.18
2019-02-25T03:35:10.902Z,7.80
2019-02-25T03:37:42.890Z,7.78
2019-02-25T03:40:17.275Z,7.90
2019-02-25T03:42:48.863Z,8.30
2019-02-25T03:45:21.114Z,8.45
2019-02-25T03:47:53.029Z,8.03
2019-02-25T03:50:23.890Z,7.83
2019-02-25T03:52:54.846Z,8.00
2019-02-25T03:55:26.019Z,8.10
2019-02-25T03:57:57.777Z,7.50
2019-02-25T04:00:29.455Z,7.87
2019-02-25T04:03:01.017Z,7.70
2019-02-25T04:05:32.288Z,7.17
2019-02-25T04:08:04.102Z,8.40
2019-02-25T04:10:35.085Z,7.60
2019-02-25T04:13:05.740Z,7.60
2019-02-25T04:15:40.510Z,8.00
2019-02-25T04:18:11.486Z,7.30
2019-02-25T04:20:43.038Z,7.95
2019-02-25T04:23:14.596Z,7.75
2019-02-25T04:25:46.171Z,7.60
2019-02-25T04:28:17.558Z,7.33
2019-02-25T04:30:49.446Z,7.50
2019-02-25T04:33:20.983Z,7.50
2019-02-25T04:35:52.233Z,7.45
2019-02-25T04:38:23.323Z,7.25
2019-02-25T04:40:54.650Z,7.92
2019-02-25T04:43:25.910Z,7.70
2019-02-25T04:45:57.147Z,7.17
2019-02-25T04:48:28.385Z,7.60
2019-02-25T04:50:59.776Z,7.15
2019-02-25T04:53:31.361Z,8.20
2019-02-25T04:56:02.588Z,8.40
2019-02-25T04:58:34.635Z,8.33
2019-02-25T05:01:05.670Z,8.05
2019-02-25T05:03:37.413Z,7.42
2019-02-25T05:06:09.430Z,6.87
2019-02-25T05:08:41.511Z,8.10
2019-02-25T05:11:12.793Z,7.92
2019-02-25T05:13:44.331Z,7.30
2019-02-25T05:16:22.919Z,7.50
2019-02-25T05:18:54.750Z,7.47
2019-02-25T05:21:26.650Z,7.58
2019-02-25T05:23:57.962Z,6.92
2019-02-25T05:26:29.467Z,7.10
2019-02-25T05:29:00.733Z,7.20
2019-02-25T05:31:31.750Z,6.97
2019-02-25T05:34:02.438Z,6.95
2019-02-25T05:36:33.374Z,7.35
2019-02-25T05:39:05.961Z,6.78
2019-02-25T05:41:37.546Z,7.15
2019-02-25T05:44:08.779Z,7.40
2019-02-25T05:46:40.612Z,7.80
2019-02-25T05:49:12.308Z,7.87
2019-02-25T05:51:44.156Z,7.15
2019-02-25T05:54:16.026Z,6.80
2019-02-25T05:56:47.544Z,7.12
2019-02-25T05:59:19.263Z,7.70
2019-02-25T06:01:51.141Z,7.62
2019-02-25T06:04:22.680Z,7.65
2019-02-25T06:06:53.769Z,12.88
2019-02-25T06:09:25.477Z,8.95
2019-02-25T06:11:57.127Z,8.08
2019-02-25T06:14:29.121Z,8.68
2019-02-25T06:17:01.277Z,9.58
2019-02-25T06:19:33.151Z,9.25
2019-02-25T06:22:04.820Z,8.33
2019-02-25T06:24:36.423Z,8.50
2019-02-25T06:27:07.746Z,8.70
2019-02-25T06:29:39.433Z,8.38
2019-02-25T06:32:12.154Z,8.55
2019-02-25T06:34:43.735Z,8.40
2019-02-25T06:37:15.686Z,8.08
2019-02-25T06:39:46.368Z,8.70
2019-02-25T06:42:18.025Z,8.60
2019-02-25T06:44:49.592Z,10.82
2019-02-25T06:47:21.183Z,8.63
2019-02-25T06:49:52.936Z,8.20
2019-02-25T06:52:24.858Z,8.33
2019-02-25T06:54:55.578Z,7.95
2019-02-25T06:57:27.407Z,7.80
2019-02-25T06:59:59.020Z,7.80
2019-02-25T07:02:30.986Z,7.85
2019-02-25T07:05:16.082Z,8.23
2019-02-25T07:07:53.238Z,7.55
2019-02-25T07:10:43.106Z,7.83
2019-02-25T07:13:31.787Z,7.70
2019-02-25T07:16:24.994Z,7.62
2019-02-25T07:19:15.651Z,7.37
2019-02-25T07:22:05.970Z,7.58
2019-02-25T07:24:55.212Z,7.42
2019-02-25T07:27:39.502Z,7.45
2019-02-25T07:30:28.537Z,15.13
2019-02-25T07:33:21.252Z,9.58
2019-02-25T07:36:09.787Z,6.90
2019-02-25T07:39:18.754Z,7.72
2019-02-25T07:42:12.068Z,8.00
2019-02-25T07:45:08.096Z,7.35
2019-02-25T07:47:50.561Z,7.60
2019-02-25T07:50:34.699Z,7.40
2019-02-25T07:53:13.603Z,7.35
2019-02-25T07:56:06.313Z,7.67
2019-02-25T07:59:00.087Z,7.87
2019-02-25T08:01:38.065Z,7.33
2019-02-25T08:04:25.023Z,8.18
2019-02-25T08:07:14.058Z,7.87
2019-02-25T08:09:52.738Z,7.17
2019-02-25T08:12:40.764Z,8.00
2019-02-25T08:15:26.528Z,7.45
2019-02-25T08:18:15.544Z,7.90
2019-02-25T08:20:59.859Z,7.80
2019-02-25T08:23:39.714Z,7.65
2019-02-25T08:26:29.428Z,6.75
2019-02-25T08:29:31.221Z,7.37
2019-02-25T08:32:09.527Z,7.92
2019-02-25T08:35:05.709Z,8.03
2019-02-25T08:38:17.374Z,7.92
2019-02-25T08:41:32.163Z,7.10
2019-02-25T08:44:12.897Z,7.85
2019-02-25T08:47:03.344Z,8.08
2019-02-25T08:49:41.913Z,8.15
2019-02-25T08:52:14.010Z,8.13
2019-02-25T08:54:46.112Z,7.92
2019-02-25T08:57:16.810Z,8.55
2019-02-25T08:59:48.369Z,7.90
2019-02-25T09:02:20.731Z,8.00
2019-02-25T09:04:52.358Z,7.80
2019-02-25T09:07:23.550Z,7.50
2019-02-25T09:09:55.371Z,7.05
2019-02-25T09:12:27.033Z,7.20
2019-02-25T09:14:58.288Z,7.85
2019-02-25T09:17:29.513Z,7.33
2019-02-25T09:20:01.244Z,7.40
2019-02-25T09:22:32.374Z,7.80
2019-02-25T09:25:04.139Z,8.28
2019-02-25T09:27:34.774Z,7.92
2019-02-25T09:30:07.848Z,7.35
2019-02-25T09:32:39.620Z,7.95
2019-02-25T09:35:10.941Z,7.30
2019-02-25T09:37:42.198Z,7.08
2019-02-25T09:40:15.803Z,7.17
2019-02-25T09:42:47.041Z,7.20
2019-02-25T09:45:18.189Z,7.47
2019-02-25T09:47:49.651Z,6.87
2019-02-25T09:50:21.303Z,6.60
2019-02-25T09:52:53.259Z,6.65
2019-02-25T09:55:24.998Z,6.43
2019-02-25T09:57:56.081Z,6.03
2019-02-25T10:00:27.805Z,6.00
2019-02-25T10:02:58.966Z,6.37
2019-02-25T10:05:30.852Z,6.05
2019-02-25T10:08:02.536Z,5.73
2019-02-25T10:10:34.094Z,6.70
2019-02-25T10:13:05.597Z,5.90
2019-02-25T10:15:37.354Z,6.60
2019-02-25T10:18:08.981Z,5.77
2019-02-25T10:20:40.126Z,5.80
2019-02-25T10:23:11.476Z,5.80
2019-02-25T10:25:43.026Z,5.30
2019-02-25T10:28:14.290Z,4.80
2019-02-25T10:30:52.633Z,6.10
2019-02-25T10:33:18.854Z,4.50
2019-02-25T10:35:50.163Z,4.97
2019-02-25T10:38:21.737Z,5.20
2019-02-25T10:40:53.897Z,4.30
2019-02-25T10:43:27.405Z,4.63
2019-02-25T10:45:58.201Z,4.70
2019-02-25T10:48:28.702Z,5.20
2019-02-25T10:51:00.431Z,4.97
2019-02-25T10:53:31.715Z,5.00
2019-02-25T10:56:30.871Z,4.70
2019-02-25T10:59:04.505Z,5.07
2019-02-25T11:01:37.555Z,5.33
2019-02-25T11:04:10.041Z,5.60
2019-02-25T11:06:41.478Z,4.77
2019-02-25T11:09:31.483Z,5.73
2019-02-25T11:12:03.070Z,5.37
2019-02-25T11:14:35.938Z,5.00
2019-02-25T11:17:07.494Z,5.50
2019-02-25T11:19:39.195Z,5.70
2019-02-25T11:22:12.130Z,5.90
2019-02-25T11:24:46.846Z,5.30
2019-02-25T11:27:18.286Z,5.03
2019-02-25T11:29:50.097Z,5.57
2019-02-25T11:32:23.780Z,4.87
2019-02-25T11:34:54.955Z,5.40
2019-02-25T11:37:27.083Z,4.97
2019-02-25T11:39:59.838Z,4.90
2019-02-25T11:42:31.712Z,4.83
2019-02-25T11:45:04.467Z,5.07
2019-02-25T11:47:36.233Z,4.50
2019-02-25T11:50:08.735Z,4.40
2019-02-25T11:52:41.078Z,5.23
2019-02-25T11:55:13.574Z,5.40
2019-02-25T11:57:44.825Z,4.33
2019-02-25T12:00:21.755Z,4.90
2019-02-25T12:02:52.793Z,4.60
2019-02-25T12:05:24.380Z,5.07
2019-02-25T12:07:55.903Z,5.03
2019-02-25T12:10:27.749Z,5.27
2019-02-25T12:12:59.601Z,5.00
2019-02-25T12:15:31.261Z,4.93
2019-02-25T12:18:02.584Z,5.10
2019-02-25T12:20:34.420Z,4.20
2019-02-25T12:23:05.491Z,5.00
2019-02-25T12:25:36.611Z,4.90
2019-02-25T12:28:08.149Z,4.30
2019-02-25T12:30:39.819Z,4.70
2019-02-25T12:33:11.264Z,5.47
2019-02-25T12:35:42.868Z,4.90
2019-02-25T12:38:14.501Z,5.60
2019-02-25T12:40:46.451Z,5.10
2019-02-25T12:43:17.455Z,5.50
2019-02-25T12:45:48.741Z,5.10
2019-02-25T12:48:22.683Z,5.10
2019-02-25T12:50:53.693Z,4.43
2019-02-25T12:53:24.983Z,4.80
2019-02-25T12:55:56.940Z,4.77
2019-02-25T12:58:28.733Z,4.23
2019-02-25T13:00:59.848Z,4.87
2019-02-25T13:03:31.172Z,4.50
2019-02-25T13:06:02.852Z,4.50
2019-02-25T13:08:34.202Z,4.77
2019-02-25T13:11:06.326Z,4.50
2019-02-25T13:13:37.681Z,4.80
2019-02-25T13:16:09.032Z,4.57
2019-02-25T13:18:41.098Z,4.40
2019-02-25T13:21:13.018Z,5.17
2019-02-25T13:23:44.668Z,4.10
2019-02-25T13:26:16.179Z,4.50
2019-02-25T13:28:47.499Z,4.37
2019-02-25T13:31:18.521Z,4.97
2019-02-25T13:33:50.591Z,4.97
2019-02-25T13:36:21.861Z,4.80
2019-02-25T13:38:52.559Z,5.20
2019-02-25T13:41:24.228Z,5.00
2019-02-25T13:43:55.305Z,4.60
2019-02-25T13:46:27.307Z,5.03
2019-02-25T13:48:58.900Z,5.13
2019-02-25T13:51:30.895Z,5.10
2019-02-25T13:54:02.738Z,4.70
2019-02-25T13:56:34.056Z,5.03
2019-02-25T13:59:05.190Z,4.43
2019-02-25T14:01:36.757Z,4.70
2019-02-25T14:04:08.454Z,4.43
2019-02-25T14:06:40.272Z,4.00
2019-02-25T14:09:12.217Z,3.70
2019-02-25T14:11:43.829Z,4.00
2019-02-25T14:14:15.648Z,3.50
2019-02-25T14:16:47.775Z,4.00
2019-02-25T14:19:19.086Z,4.20
2019-02-25T14:21:50.166Z,4.07
2019-02-25T14:24:21.283Z,3.90
2019-02-25T14:26:54.537Z,4.73
2019-02-25T14:29:26.401Z,3.60
2019-02-25T14:31:57.757Z,3.40
2019-02-25T14:34:29.449Z,3.80
2019-02-25T14:37:02.672Z,3.77
2019-02-25T14:39:35.968Z,3.67
2019-02-25T14:42:09.302Z,3.40
2019-02-25T14:44:43.050Z,3.63
2019-02-25T14:47:20.544Z,3.50
2019-02-25T14:49:47.594Z,3.93
2019-02-25T14:52:19.306Z,4.27
2019-02-25T14:54:52.152Z,3.60
2019-02-25T14:57:24.844Z,4.13
2019-02-25T14:59:56.925Z,3.87
2019-02-25T15:02:28.854Z,3.97
2019-02-25T15:05:00.390Z,3.80
2019-02-25T15:07:32.401Z,3.83
2019-02-25T15:10:04.274Z,3.33
2019-02-25T15:12:37.754Z,3.30
2019-02-25T15:15:13.120Z,3.60
2019-02-25T15:17:46.088Z,3.60
2019-02-25T15:20:18.605Z,3.77
2019-02-25T15:22:51.639Z,3.70
2019-02-25T15:25:23.408Z,3.73
2019-02-25T15:27:54.040Z,3.20
2019-02-25T15:30:28.295Z,3.23
2019-02-25T15:33:00.228Z,3.50
2019-02-25T15:35:34.663Z,3.90
2019-02-25T15:38:04.528Z,3.20
2019-02-25T15:40:35.807Z,3.63
2019-02-25T15:43:15.096Z,3.30
2019-02-25T15:45:46.098Z,3.53
2019-02-25T15:48:20.252Z,3.40
2019-02-25T15:50:55.980Z,3.60
2019-02-25T15:53:28.254Z,3.60
2019-02-25T15:56:01.345Z,3.40
2019-02-25T15:58:32.055Z,3.20
2019-02-25T16:01:03.418Z,3.30
2019-02-25T16:03:36.642Z,3.27
2019-02-25T16:06:10.616Z,3.10
2019-02-25T16:08:42.667Z,3.10
2019-02-25T16:11:16.196Z,3.00
2019-02-25T16:13:47.554Z,3.37
2019-02-25T16:16:20.189Z,3.30
2019-02-25T16:18:53.515Z,2.90
2019-02-25T16:21:26.686Z,3.00
2019-02-25T16:23:59.219Z,3.13
2019-02-25T16:26:32.012Z,3.00
2019-02-25T16:29:06.406Z,3.10
2019-02-25T16:31:37.616Z,3.70
2019-02-25T16:34:10.044Z,3.50
2019-02-25T16:36:45.242Z,3.40
2019-02-25T16:39:16.168Z,4.40
2019-02-25T16:41:48.099Z,5.90
2019-02-25T16:44:19.549Z,5.73
2019-02-25T16:46:51.226Z,7.10
2019-02-25T16:49:23.228Z,7.20
2019-02-25T16:51:56.044Z,7.60
2019-02-25T16:54:28.492Z,7.20
2019-02-25T16:57:00.594Z,7.87
2019-02-25T16:59:31.750Z,8.57
2019-02-25T17:02:04.673Z,8.70
2019-02-25T17:04:35.751Z,8.40
2019-02-25T17:07:07.083Z,9.30
2019-02-25T17:09:39.148Z,9.10
2019-02-25T17:12:11.258Z,10.10
2019-02-25T17:14:42.566Z,9.33
2019-02-25T17:17:14.476Z,9.90
2019-02-25T17:19:46.467Z,10.83
2019-02-25T17:22:17.874Z,10.87
2019-02-25T17:24:49.503Z,10.10
2019-02-25T17:27:21.001Z,9.03
2019-02-25T17:29:53.848Z,9.87
2019-02-25T17:32:25.558Z,9.43
2019-02-25T17:34:58.191Z,8.97
2019-02-25T17:37:31.486Z,10.73
2019-02-25T17:40:04.432Z,10.07
2019-02-25T17:42:36.575Z,9.23
2019-02-25T17:45:10.914Z,10.87
2019-02-25T17:47:42.459Z,9.80
2019-02-25T17:50:17.372Z,10.27
2019-02-25T17:52:49.032Z,10.10
2019-02-25T17:55:22.123Z,9.97
2019-02-25T17:57:54.341Z,9.27
2019-02-25T18:00:35.006Z,10.27
2019-02-25T18:03:07.671Z,11.07
2019-02-25T18:05:40.787Z,10.80
2019-02-25T18:08:13.375Z,10.70
2019-02-25T18:10:45.989Z,10.83
2019-02-25T18:13:19.004Z,11.53
2019-02-25T18:15:52.046Z,10.87
2019-02-25T18:18:25.069Z,10.93
2019-02-25T18:20:56.395Z,11.23
2019-02-25T18:23:27.977Z,10.53
2019-02-25T18:25:59.917Z,9.50
2019-02-25T18:28:31.547Z,10.40
2019-02-25T18:31:04.437Z,10.63
2019-02-25T18:33:37.248Z,10.87
2019-02-25T18:36:11.195Z,10.50
2019-02-25T18:38:44.286Z,11.00
2019-02-25T18:41:16.736Z,10.43
2019-02-25T18:43:49.425Z,11.37
2019-02-25T18:46:23.372Z,10.57
2019-02-25T18:48:55.515Z,11.00
2019-02-25T18:51:28.295Z,11.13
2019-02-25T18:54:03.623Z,11.37
2019-02-25T18:56:35.798Z,12.97
2019-02-25T18:59:13.055Z,13.60
2019-02-25T19:01:41.291Z,13.40
2019-02-25T19:04:13.243Z,12.90
2019-02-25T19:06:47.853Z,13.73
2019-02-25T19:09:23.167Z,12.93
2019-02-25T19:11:57.793Z,13.50
2019-02-25T19:14:31.123Z,13.03
2019-02-25T19:17:04.832Z,13.43
2019-02-25T19:19:38.438Z,24.70
2019-02-25T19:22:10.814Z,19.33
2019-02-25T19:24:44.427Z,15.30
2019-02-25T19:27:16.230Z,15.17
2019-02-25T19:29:49.397Z,13.57
2019-02-25T19:32:23.035Z,14.73
2019-02-25T19:34:56.253Z,14.03
2019-02-25T19:37:31.156Z,13.60
2019-02-25T19:40:05.308Z,12.97
2019-02-25T19:42:35.143Z,12.83
2019-02-25T19:45:08.107Z,13.17
2019-02-25T19:47:43.130Z,13.67
2019-02-25T19:50:15.267Z,12.17
2019-02-25T19:52:46.729Z,11.73
2019-02-25T19:55:20.479Z,12.00
2019-02-25T19:57:51.376Z,11.67
2019-02-25T20:00:28.257Z,11.73
2019-02-25T20:03:05.830Z,11.93
2019-02-25T20:05:33.694Z,11.60
2019-02-25T20:08:06.412Z,12.67
2019-02-25T20:10:38.160Z,12.40
2019-02-25T20:13:10.083Z,12.50
2019-02-25T20:15:44.081Z,12.20
2019-02-25T20:18:16.160Z,12.43
2019-02-25T20:20:48.780Z,22.00
2019-02-25T20:23:22.294Z,15.80
2019-02-25T20:25:55.679Z,16.00
2019-02-25T20:28:27.943Z,13.03
2019-02-25T20:30:59.652Z,13.10
2019-02-25T20:33:32.954Z,12.90
2019-02-25T20:36:04.163Z,13.80
2019-02-25T20:38:37.270Z,12.60
2019-02-25T20:41:09.407Z,12.53
2019-02-25T20:43:40.728Z,13.20
2019-02-25T20:46:11.989Z,12.57
2019-02-25T20:48:46.428Z,13.20
2019-02-25T20:51:17.336Z,12.90
2019-02-25T20:53:50.690Z,12.90
2019-02-25T20:56:22.821Z,13.00
2019-02-25T20:58:55.364Z,16.27
2019-02-25T21:01:27.448Z,19.23
2019-02-25T21:03:59.379Z,20.37
2019-02-25T21:06:32.534Z,17.03
2019-02-25T21:09:05.046Z,14.77
2019-02-25T21:11:37.207Z,15.43
2019-02-25T21:14:09.052Z,13.90
2019-02-25T21:16:40.368Z,15.87
2019-02-25T21:19:13.068Z,15.00
2019-02-25T21:21:44.184Z,14.97
2019-02-25T21:24:15.003Z,15.20
2019-02-25T21:26:46.618Z,17.52
2019-02-25T21:29:17.671Z,16.87
2019-02-25T21:31:51.785Z,19.20
2019-02-25T21:34:24.322Z,14.80
2019-02-25T21:36:56.719Z,15.03
2019-02-25T21:39:28.798Z,14.53
2019-02-25T21:42:00.088Z,14.47
2019-02-25T21:44:31.676Z,14.90
2019-02-25T21:47:03.783Z,14.43
2019-02-25T21:49:36.464Z,14.53
2019-02-25T21:52:10.644Z,14.60
2019-02-25T21:54:42.148Z,14.10
2019-02-25T21:57:14.570Z,14.10
2019-02-25T21:59:46.101Z,14.60
2019-02-25T22:02:17.690Z,15.85
2019-02-25T22:04:50.134Z,15.37
2019-02-25T22:07:24.998Z,18.73
2019-02-25T22:09:55.457Z,24.40
2019-02-25T22:12:26.921Z,19.53
2019-02-25T22:15:00.033Z,18.17
2019-02-25T22:17:32.055Z,21.50
2019-02-25T22:20:04.933Z,16.80
2019-02-25T22:22:37.538Z,14.55
2019-02-25T22:25:11.923Z,15.85
2019-02-25T22:27:45.588Z,14.53
2019-02-25T22:30:18.097Z,14.85
2019-02-25T22:32:49.194Z,15.48
2019-02-25T22:35:21.126Z,15.30
2019-02-25T22:37:55.453Z,15.08
2019-02-25T22:40:27.883Z,14.20
2019-02-25T22:42:59.397Z,19.27
2019-02-25T22:45:32.657Z,15.20
2019-02-25T22:48:03.522Z,13.70
2019-02-25T22:50:36.046Z,14.58
2019-02-25T22:53:12.670Z,16.67
2019-02-25T22:55:44.928Z,15.65
2019-02-25T22:58:17.601Z,15.30
2019-02-25T23:00:54.063Z,14.25
2019-02-25T23:03:27.648Z,13.40
2019-02-25T23:05:58.789Z,13.50
2019-02-25T23:08:30.025Z,13.00
2019-02-25T23:11:01.665Z,12.90
2019-02-25T23:13:32.904Z,13.90
2019-02-25T23:16:04.793Z,13.18
2019-02-25T23:18:37.081Z,13.65
2019-02-25T23:21:08.755Z,13.20
2019-02-25T23:23:40.294Z,13.60
2019-02-25T23:26:12.694Z,13.38
2019-02-25T23:28:45.330Z,13.98
2019-02-25T23:31:17.249Z,13.45
2019-02-25T23:33:48.996Z,13.30
2019-02-25T23:36:22.203Z,13.38
2019-02-25T23:38:57.020Z,11.95
2019-02-25T23:41:31.892Z,13.60
2019-02-25T23:44:01.937Z,12.53
2019-02-25T23:46:34.702Z,13.05
2019-02-25T23:49:06.477Z,13.83
2019-02-25T23:51:39.426Z,12.35
2019-02-25T23:54:12.162Z,13.18
2019-02-25T23:56:47.652Z,12.80
2019-02-25T23:59:19.322Z,12.80
